Stations météo

réclame
Mon MeteoGroup
Arcen aws, Pays-Bas (6391): Température de l'air & dewpoint: 09.12.2017 15:00:00 - 15.12.2017 15:00:00 (CET)Arcen aws, Pays-Bas (6391): Température de l'air 5cm: 09.12.2017 15:00:00 - 15.12.2017 15:00:00 (CET)Arcen aws, Pays-Bas (6391): Vitesse du vent & gusts: 09.12.2017 15:00:00 - 15.12.2017 15:00:00 (CET)Arcen aws, Pays-Bas (6391): Direction du vent: 09.12.2017 15:00:00 - 15.12.2017 15:00:00 (CET)Arcen aws, Pays-Bas (6391): Quantités de précipitations: 09.12.2017 15:00:00 - 15.12.2017 15:00:00 (CET)
Date & Time tt [°C] td [°C] tt 5cm [°C] ff [km/h] ff [knt] fx [km/h] fx [knt] dd rr [mm]
15.12.2017 15:00:00 - - - - - - - - -
15.12.2017 14:00:00 5,3 2,6 5,6 11 6 18 10 SSW 0,0
15.12.2017 13:00:00 4,8 3,3 4,6 11 6 18 10 S 0,0
15.12.2017 12:00:00 4,3 3,1 4,4 7 4 14 8 S 0,0
15.12.2017 11:00:00 3,8 3,0 3,8 7 4 18 10 SSE 0,0
15.12.2017 10:00:00 3,6 2,9 3,6 14 8 22 12 S 0,1
15.12.2017 09:00:00 3,7 1,9 3,4 14 8 22 12 S 0,0
15.12.2017 08:00:00 3,3 1,8 3,1 11 6 22 12 S 0,0
15.12.2017 07:00:00 3,1 1,4 2,9 14 8 25 14 SSW 0,0
15.12.2017 06:00:00 3,1 1,4 2,8 14 8 25 14 SSW 0,0
15.12.2017 05:00:00 2,7 1,3 2,3 11 6 22 12 SSW 0,0
15.12.2017 04:00:00 2,6 1,0 2,5 14 8 22 12 SW 0,0
15.12.2017 03:00:00 2,5 0,9 2,3 11 6 22 12 SW 0,0
15.12.2017 02:00:00 2,3 1,0 2,2 7 4 22 12 WSW 0,0
15.12.2017 01:00:00 2,3 1,0 2,2 14 8 25 14 WSW 0,0
15.12.2017 00:00:00 2,4 1,2 1,6 11 6 18 10 SSW 0,0
14.12.2017 23:00:00 2,9 1,6 2,1 7 4 18 10 SSW 0,0
14.12.2017 22:00:00 3,2 1,6 2,1 11 6 22 12 SSW 0,0
14.12.2017 21:00:00 3,5 2,1 2,7 11 6 25 14 S 0,0
14.12.2017 20:00:00 3,3 1,7 2,3 14 8 25 14 SSW 0,0
14.12.2017 19:00:00 3,5 1,5 2,5 14 8 25 14 SSW 0,0
14.12.2017 18:00:00 3,1 1,2 1,9 14 8 25 14 S 0,0
14.12.2017 17:00:00 4,0 1,5 2,9 18 10 32 18 SSW 0,0
14.12.2017 16:00:00 4,2 1,7 3,6 22 12 47 25 SW 0,0
14.12.2017 15:00:00 4,7 1,8 4,2 25 14 47 25 SSW 0,0
14.12.2017 14:00:00 5,1 2,3 5,1 25 14 43 23 SW 0,0
14.12.2017 13:00:00 5,3 2,4 4,9 29 16 47 25 SW 0,0
14.12.2017 12:00:00 5,1 2,4 4,9 29 16 47 25 SW 0,3
14.12.2017 11:00:00 4,6 2,1 4,4 25 14 43 23 SW 0,0
14.12.2017 10:00:00 4,0 1,5 3,5 22 12 36 19 SSW 0,0
14.12.2017 09:00:00 3,4 1,8 2,9 18 10 43 23 SW 0,2
14.12.2017 08:00:00 3,3 1,8 2,7 25 14 54 29 SW 0,2
14.12.2017 07:00:00 3,5 2,1 3,3 29 16 54 29 W 0,3
14.12.2017 06:00:00 2,6 1,6 2,4 29 16 47 25 SW 0,1
14.12.2017 05:00:00 1,4 0,8 1,1 18 10 29 16 SSW 0,9
14.12.2017 04:00:00 3,3 1,4 3,1 22 12 36 19 SW 0,0
14.12.2017 03:00:00 4,4 2,2 3,7 14 8 29 16 SW 0,0
14.12.2017 02:00:00 4,6 2,7 3,7 18 10 29 16 SW 0,0
14.12.2017 01:00:00 4,8 2,6 3,4 18 10 32 18 WSW 0,0
14.12.2017 00:00:00 5,4 3,1 4,1 22 12 43 23 WSW 0,0
13.12.2017 23:00:00 5,9 4,5 5,1 25 14 36 19 WSW 0,3
13.12.2017 22:00:00 6,1 5,2 5,4 29 16 47 25 W 6,7
13.12.2017 21:00:00 6,4 5,6 5,4 25 14 43 23 S 2,9
13.12.2017 20:00:00 5,7 5,0 4,8 22 12 36 19 S 0,6
13.12.2017 19:00:00 5,0 4,2 4,0 22 12 32 18 S 0,1
13.12.2017 18:00:00 4,7 3,7 3,7 18 10 36 19 S 0,2
13.12.2017 17:00:00 4,6 3,8 3,6 18 10 29 16 SSW 0,1
13.12.2017 16:00:00 4,9 3,5 3,8 18 10 40 21 SSW 0,0
13.12.2017 15:00:00 5,2 3,2 3,9 25 14 50 27 SW 0,2
13.12.2017 14:00:00 4,8 3,2 - 29 16 50 27 SW 0,1
13.12.2017 13:00:00 4,4 3,0 - 29 16 54 29 SSW 0,1
13.12.2017 12:00:00 4,4 3,1 3,2 25 14 47 25 SSW 1,2
13.12.2017 11:00:00 4,4 2,9 3,3 29 16 47 25 S 0,9
13.12.2017 10:00:00 4,2 2,5 3,1 25 14 43 23 S 0,5
13.12.2017 09:00:00 4,2 1,7 3,0 22 12 40 21 S 0,1
13.12.2017 08:00:00 4,1 1,0 2,8 22 12 36 19 S 0,0
13.12.2017 07:00:00 3,3 0,8 2,0 22 12 36 19 S 0,0
13.12.2017 06:00:00 2,3 0,1 1,0 18 10 32 18 S 0,0
13.12.2017 05:00:00 1,9 -0,4 0,8 18 10 32 18 S 0,0
13.12.2017 04:00:00 1,7 -0,4 0,5 18 10 29 16 S 0,0
13.12.2017 03:00:00 1,4 -0,3 0,3 14 8 25 14 S 0,0
13.12.2017 02:00:00 1,4 -0,2 -0,2 18 10 29 16 S 0,0
13.12.2017 01:00:00 1,0 -0,2 -0,3 14 8 25 14 S 0,0
13.12.2017 00:00:00 1,1 0,1 -0,2 11 6 22 12 S 0,0
12.12.2017 23:00:00 1,2 0,4 -0,1 11 6 18 10 S 0,0
12.12.2017 22:00:00 1,6 0,7 0,7 7 4 18 10 S 0,0
12.12.2017 21:00:00 2,1 0,8 1,4 11 6 14 8 SSW 0,0
12.12.2017 20:00:00 1,9 0,8 1,3 7 4 14 8 SW 0,0
12.12.2017 19:00:00 1,9 0,4 1,2 11 6 18 10 SW 0,0
12.12.2017 18:00:00 1,6 0,3 1,2 14 8 32 18 WSW 0,0
12.12.2017 17:00:00 2,1 0,5 1,5 14 8 29 16 WSW 0,0
12.12.2017 16:00:00 2,0 0,5 1,4 14 8 29 16 WSW 0,0
12.12.2017 15:00:00 2,3 0,7 1,6 14 8 29 16 SW 0,0
12.12.2017 14:00:00 2,1 0,7 1,5 14 8 32 18 WSW 0,0
12.12.2017 13:00:00 2,1 0,8 1,6 18 10 29 16 SW 0,0
12.12.2017 12:00:00 2,0 0,9 1,4 14 8 25 14 WSW 0,0
12.12.2017 11:00:00 1,5 0,6 1,1 18 10 29 16 WSW 0,0
12.12.2017 10:00:00 1,6 0,7 1,0 18 10 29 16 WSW 0,0
12.12.2017 09:00:00 1,0 0,4 0,5 14 8 29 16 SW 0,0
12.12.2017 08:00:00 1,5 0,4 0,9 18 10 36 19 WSW 0,0
12.12.2017 07:00:00 1,4 0,3 0,8 18 10 32 18 WSW 0,0
12.12.2017 06:00:00 1,5 0,2 0,9 18 10 29 16 WSW 0,0
12.12.2017 05:00:00 1,2 0,1 0,8 14 8 29 16 W 0,0
12.12.2017 04:00:00 1,3 0,4 0,8 11 6 29 16 W 0,0
12.12.2017 03:00:00 1,2 0,2 0,7 14 8 32 18 W 0,0
12.12.2017 02:00:00 0,8 0,2 0,5 11 6 25 14 WNW 0,1
12.12.2017 01:00:00 0,7 0,0 0,4 14 8 29 16 W 0,0
12.12.2017 00:00:00 0,5 -0,1 0,3 11 6 18 10 WNW 0,0
11.12.2017 23:00:00 0,3 -0,2 0,3 11 6 18 10 NNW 0,3
11.12.2017 22:00:00 0,5 -0,1 0,4 11 6 18 10 NNW 0,4
11.12.2017 21:00:00 0,6 0,3 0,5 11 6 18 10 N 0,5
11.12.2017 20:00:00 0,9 0,6 0,7 11 6 18 10 NW 0,3
11.12.2017 19:00:00 1,0 0,5 0,7 11 6 14 8 NNE 0,6
11.12.2017 18:00:00 0,9 0,4 0,7 11 6 22 12 N 0,0
11.12.2017 17:00:00 1,0 0,6 0,7 7 4 25 14 NE 0,6
11.12.2017 16:00:00 1,0 0,3 0,7 18 10 29 16 ENE 0,2
11.12.2017 15:00:00 0,6 0,1 0,5 18 10 36 19 ENE 1,2
11.12.2017 14:00:00 0,2 -0,3 0,4 22 12 43 23 ENE 2,2
11.12.2017 13:00:00 0,1 -0,3 0,3 22 12 32 18 NNE 3,0
11.12.2017 12:00:00 -0,1 -0,1 0,0 18 10 32 18 NE 2,2
11.12.2017 11:00:00 0,0 -0,8 0,1 18 10 29 16 NE 0,3
11.12.2017 10:00:00 0,6 -1,7 0,5 14 8 32 18 NE 0,0
11.12.2017 09:00:00 0,6 -2,0 0,3 22 12 32 18 ENE 0,0
11.12.2017 08:00:00 0,3 -2,1 -0,1 18 10 29 16 ENE 0,0
11.12.2017 07:00:00 0,0 -1,8 -0,4 11 6 18 10 ENE 0,0
11.12.2017 06:00:00 -0,7 -1,6 -1,4 7 4 14 8 ENE 0,0
11.12.2017 05:00:00 -1,5 -1,5 -2,4 4 2 7 4 NE 0,0
11.12.2017 04:00:00 -1,2 -1,6 -2,4 4 2 7 4 SSE 0,0
11.12.2017 03:00:00 -0,5 -1,3 -1,3 4 2 7 4 NNE 0,0
11.12.2017 02:00:00 1,4 0,1 0,5 7 4 18 10 SW 0,0
11.12.2017 01:00:00 1,8 0,1 0,9 11 6 32 18 W 0,0
11.12.2017 00:00:00 2,5 0,2 1,8 25 14 43 23 W 0,0
10.12.2017 23:00:00 2,9 0,3 1,9 29 16 58 31 W 0,0
10.12.2017 22:00:00 3,8 1,4 2,5 40 21 68 37 WSW 0,0
10.12.2017 21:00:00 4,6 1,0 2,5 36 19 61 33 WSW 0,1
10.12.2017 20:00:00 5,4 4,1 2,8 32 18 58 31 WSW 0,8
10.12.2017 19:00:00 6,5 3,3 1,7 36 19 68 37 SW 0,0
10.12.2017 18:00:00 5,2 3,3 0,7 29 16 47 25 SSW 0,2
10.12.2017 17:00:00 3,9 3,4 - 22 12 36 19 SSW 2,0
10.12.2017 16:00:00 0,5 0,5 0,0 14 8 32 18 S 3,3
10.12.2017 15:00:00 0,0 0,0 0,0 18 10 36 19 SSE 3,6
10.12.2017 14:00:00 0,0 0,0 0,0 22 12 43 23 SE 1,4
10.12.2017 13:00:00 0,0 -0,1 0,0 25 14 40 21 SE 1,6
10.12.2017 12:00:00 0,3 -0,4 0,4 22 12 40 21 ESE 0,3
10.12.2017 11:00:00 1,8 -1,2 1,4 18 10 29 16 SE 0,0
10.12.2017 10:00:00 1,4 -0,8 1,0 14 8 22 12 SE 0,0
10.12.2017 09:00:00 1,3 -0,9 1,0 11 6 22 12 SE 0,0
10.12.2017 08:00:00 1,1 -0,3 0,8 11 6 22 12 SSE 0,0
10.12.2017 07:00:00 1,1 0,3 0,8 11 6 18 10 S 0,0
10.12.2017 06:00:00 0,9 0,4 0,8 11 6 25 14 S 0,1
10.12.2017 05:00:00 1,2 0,3 0,9 14 8 25 14 SSW 0,0
10.12.2017 04:00:00 0,9 0,3 0,7 18 10 32 18 S 0,0
10.12.2017 03:00:00 1,5 -0,3 1,1 22 12 32 18 SSW 0,0
10.12.2017 02:00:00 1,6 -0,6 1,1 18 10 32 18 SSW 0,0
10.12.2017 01:00:00 1,4 -0,8 1,0 18 10 32 18 SW 0,0
10.12.2017 00:00:00 1,4 -0,8 0,8 14 8 32 18 SSW 0,0
09.12.2017 23:00:00 1,4 -1,0 0,4 14 8 32 18 SSW 0,0
09.12.2017 22:00:00 1,4 -0,9 0,7 18 10 29 16 SSW 0,0
09.12.2017 21:00:00 1,0 -1,1 0,0 18 10 29 16 SSW 0,0
09.12.2017 20:00:00 0,9 -1,3 0,0 14 8 29 16 SSW 0,0
09.12.2017 19:00:00 1,5 -1,1 0,8 14 8 32 18 SW 0,0
09.12.2017 18:00:00 1,8 -0,4 1,1 14 8 29 16 SW 0,0
09.12.2017 17:00:00 2,2 -0,3 1,4 18 10 32 18 SW 0,0
09.12.2017 16:00:00 2,2 0,2 1,6 14 8 25 14 SW 0,0
09.12.2017 15:00:00 2,3 0,3 1,6 18 10 29 16 WSW 0,0

tt = Température de l'air
td = dewpoint
tt 5cm = Température de l'air 5cm
ff = Vitesse du vent
fx = gusts
dd = Direction du vent
rr = Quantités de précipitations

stations d'obs. à proximité